sensor_id;sensor_type;location;lat;lon;timestamp;P1;durP1;ratioP1;P2;durP2;ratioP2
67185;SDS011;54116;53.518;49.398;2023-03-21T00:04:23;11.15;;;4.22;;
67185;SDS011;54116;53.518;49.398;2023-03-21T00:06:51;11.73;;;4.47;;
67185;SDS011;54116;53.518;49.398;2023-03-21T00:09:18;11.55;;;4.88;;
67185;SDS011;54116;53.518;49.398;2023-03-21T00:11:46;11.45;;;4.63;;
67185;SDS011;54116;53.518;49.398;2023-03-21T00:14:14;10.93;;;4.40;;
67185;SDS011;54116;53.518;49.398;2023-03-21T00:16:45;11.00;;;4.07;;
67185;SDS011;54116;53.518;49.398;2023-03-21T00:19:15;10.80;;;4.30;;
67185;SDS011;54116;53.518;49.398;2023-03-21T00:21:44;11.20;;;4.63;;
67185;SDS011;54116;53.518;49.398;2023-03-21T00:24:11;10.70;;;4.38;;
67185;SDS011;54116;53.518;49.398;2023-03-21T00:26:37;10.48;;;4.22;;
67185;SDS011;54116;53.518;49.398;2023-03-21T00:29:04;10.85;;;4.45;;
67185;SDS011;54116;53.518;49.398;2023-03-21T00:31:30;8.75;;;3.80;;
67185;SDS011;54116;53.518;49.398;2023-03-21T00:33:57;10.80;;;4.22;;
67185;SDS011;54116;53.518;49.398;2023-03-21T00:36:23;10.18;;;4.68;;
67185;SDS011;54116;53.518;49.398;2023-03-21T00:38:50;10.35;;;4.35;;
67185;SDS011;54116;53.518;49.398;2023-03-21T00:41:17;9.60;;;3.88;;
67185;SDS011;54116;53.518;49.398;2023-03-21T00:43:43;10.13;;;4.03;;
67185;SDS011;54116;53.518;49.398;2023-03-21T00:46:09;9.77;;;3.92;;
67185;SDS011;54116;53.518;49.398;2023-03-21T00:48:35;10.68;;;4.47;;
67185;SDS011;54116;53.518;49.398;2023-03-21T00:51:09;8.82;;;3.35;;
67185;SDS011;54116;53.518;49.398;2023-03-21T00:53:46;11.18;;;4.38;;
67185;SDS011;54116;53.518;49.398;2023-03-21T00:56:12;10.93;;;4.47;;
67185;SDS011;54116;53.518;49.398;2023-03-21T00:58:38;12.20;;;4.68;;
67185;SDS011;54116;53.518;49.398;2023-03-21T01:01:05;10.95;;;4.32;;
67185;SDS011;54116;53.518;49.398;2023-03-21T01:03:31;10.70;;;4.38;;
67185;SDS011;54116;53.518;49.398;2023-03-21T01:06:10;12.32;;;4.53;;
67185;SDS011;54116;53.518;49.398;2023-03-21T01:08:39;11.23;;;4.50;;
67185;SDS011;54116;53.518;49.398;2023-03-21T01:11:08;11.18;;;4.75;;
67185;SDS011;54116;53.518;49.398;2023-03-21T01:13:37;10.82;;;3.53;;
67185;SDS011;54116;53.518;49.398;2023-03-21T01:16:04;10.70;;;4.55;;
67185;SDS011;54116;53.518;49.398;2023-03-21T01:18:32;11.43;;;4.00;;
67185;SDS011;54116;53.518;49.398;2023-03-21T01:21:00;9.43;;;3.60;;
67185;SDS011;54116;53.518;49.398;2023-03-21T01:23:27;11.65;;;4.45;;
67185;SDS011;54116;53.518;49.398;2023-03-21T01:25:54;10.02;;;4.40;;
67185;SDS011;54116;53.518;49.398;2023-03-21T01:28:21;9.40;;;3.50;;
67185;SDS011;54116;53.518;49.398;2023-03-21T01:30:50;10.82;;;4.50;;
67185;SDS011;54116;53.518;49.398;2023-03-21T01:33:18;11.88;;;4.63;;
67185;SDS011;54116;53.518;49.398;2023-03-21T01:35:45;13.18;;;5.25;;
67185;SDS011;54116;53.518;49.398;2023-03-21T01:40:38;10.15;;;4.63;;
67185;SDS011;54116;53.518;49.398;2023-03-21T01:48:38;8.85;;;3.67;;
67185;SDS011;54116;53.518;49.398;2023-03-21T01:51:09;8.88;;;3.83;;
67185;SDS011;54116;53.518;49.398;2023-03-21T01:53:37;9.38;;;3.55;;
67185;SDS011;54116;53.518;49.398;2023-03-21T01:56:07;8.63;;;4.07;;
67185;SDS011;54116;53.518;49.398;2023-03-21T01:59:10;9.10;;;3.63;;
67185;SDS011;54116;53.518;49.398;2023-03-21T02:01:46;9.60;;;3.75;;
67185;SDS011;54116;53.518;49.398;2023-03-21T02:04:15;10.63;;;4.88;;
67185;SDS011;54116;53.518;49.398;2023-03-21T02:06:51;11.02;;;3.97;;
67185;SDS011;54116;53.518;49.398;2023-03-21T02:09:23;9.15;;;4.25;;
67185;SDS011;54116;53.518;49.398;2023-03-21T02:11:53;11.48;;;4.63;;
67185;SDS011;54116;53.518;49.398;2023-03-21T02:14:20;11.05;;;4.65;;
67185;SDS011;54116;53.518;49.398;2023-03-21T02:22:12;12.27;;;5.30;;
67185;SDS011;54116;53.518;49.398;2023-03-21T02:27:17;13.60;;;5.10;;
67185;SDS011;54116;53.518;49.398;2023-03-21T02:38:06;15.07;;;5.70;;
67185;SDS011;54116;53.518;49.398;2023-03-21T02:40:58;13.75;;;5.32;;
67185;SDS011;54116;53.518;49.398;2023-03-21T02:46:29;12.80;;;5.38;;
67185;SDS011;54116;53.518;49.398;2023-03-21T02:51:54;13.25;;;5.28;;
67185;SDS011;54116;53.518;49.398;2023-03-21T02:54:24;12.18;;;5.43;;
67185;SDS011;54116;53.518;49.398;2023-03-21T02:56:52;12.80;;;5.97;;
67185;SDS011;54116;53.518;49.398;2023-03-21T02:59:21;12.18;;;5.13;;
67185;SDS011;54116;53.518;49.398;2023-03-21T03:01:50;13.70;;;5.40;;
67185;SDS011;54116;53.518;49.398;2023-03-21T03:04:18;12.85;;;5.35;;
67185;SDS011;54116;53.518;49.398;2023-03-21T03:12:34;12.02;;;4.90;;
67185;SDS011;54116;53.518;49.398;2023-03-21T03:18:07;12.55;;;5.20;;
67185;SDS011;54116;53.518;49.398;2023-03-21T03:20:44;14.13;;;5.97;;
67185;SDS011;54116;53.518;49.398;2023-03-21T03:23:26;15.75;;;6.03;;
67185;SDS011;54116;53.518;49.398;2023-03-21T03:29:03;14.15;;;6.00;;
67185;SDS011;54116;53.518;49.398;2023-03-21T03:31:40;12.98;;;5.75;;
67185;SDS011;54116;53.518;49.398;2023-03-21T03:34:13;12.23;;;5.55;;
67185;SDS011;54116;53.518;49.398;2023-03-21T03:36:45;11.52;;;5.45;;
67185;SDS011;54116;53.518;49.398;2023-03-21T03:39:16;12.38;;;5.32;;
67185;SDS011;54116;53.518;49.398;2023-03-21T03:41:44;12.63;;;5.57;;
67185;SDS011;54116;53.518;49.398;2023-03-21T03:44:23;11.05;;;4.72;;
67185;SDS011;54116;53.518;49.398;2023-03-21T03:49:38;11.55;;;4.72;;
67185;SDS011;54116;53.518;49.398;2023-03-21T03:52:16;11.10;;;5.50;;
67185;SDS011;54116;53.518;49.398;2023-03-21T03:54:47;9.77;;;4.30;;
67185;SDS011;54116;53.518;49.398;2023-03-21T03:57:16;10.25;;;4.43;;
67185;SDS011;54116;53.518;49.398;2023-03-21T03:59:44;11.70;;;4.70;;
67185;SDS011;54116;53.518;49.398;2023-03-21T04:02:14;12.93;;;5.63;;
67185;SDS011;54116;53.518;49.398;2023-03-21T04:04:41;10.85;;;4.78;;
67185;SDS011;54116;53.518;49.398;2023-03-21T04:07:08;9.57;;;4.63;;
67185;SDS011;54116;53.518;49.398;2023-03-21T04:09:34;10.85;;;4.97;;
67185;SDS011;54116;53.518;49.398;2023-03-21T04:12:00;9.10;;;4.80;;
67185;SDS011;54116;53.518;49.398;2023-03-21T04:14:27;9.90;;;4.47;;
67185;SDS011;54116;53.518;49.398;2023-03-21T04:16:54;8.57;;;4.22;;
67185;SDS011;54116;53.518;49.398;2023-03-21T04:19:20;8.55;;;4.40;;
67185;SDS011;54116;53.518;49.398;2023-03-21T04:21:46;8.25;;;4.57;;
67185;SDS011;54116;53.518;49.398;2023-03-21T04:24:13;9.23;;;4.55;;
67185;SDS011;54116;53.518;49.398;2023-03-21T04:26:39;7.78;;;3.92;;
67185;SDS011;54116;53.518;49.398;2023-03-21T04:29:06;8.00;;;4.82;;
67185;SDS011;54116;53.518;49.398;2023-03-21T04:31:32;7.20;;;4.07;;
67185;SDS011;54116;53.518;49.398;2023-03-21T04:34:01;8.48;;;4.28;;
67185;SDS011;54116;53.518;49.398;2023-03-21T04:36:30;7.95;;;4.60;;
67185;SDS011;54116;53.518;49.398;2023-03-21T04:39:04;7.38;;;4.13;;
67185;SDS011;54116;53.518;49.398;2023-03-21T04:41:37;7.05;;;3.70;;
67185;SDS011;54116;53.518;49.398;2023-03-21T04:44:05;7.35;;;3.92;;
67185;SDS011;54116;53.518;49.398;2023-03-21T04:46:32;7.45;;;3.85;;
67185;SDS011;54116;53.518;49.398;2023-03-21T04:48:58;6.45;;;3.53;;
67185;SDS011;54116;53.518;49.398;2023-03-21T04:51:25;8.05;;;4.10;;
67185;SDS011;54116;53.518;49.398;2023-03-21T04:53:51;7.38;;;3.83;;
67185;SDS011;54116;53.518;49.398;2023-03-21T04:56:23;7.72;;;4.32;;
67185;SDS011;54116;53.518;49.398;2023-03-21T04:59:05;7.68;;;3.90;;
67185;SDS011;54116;53.518;49.398;2023-03-21T05:01:33;7.18;;;3.72;;
67185;SDS011;54116;53.518;49.398;2023-03-21T05:04:00;8.63;;;4.00;;
67185;SDS011;54116;53.518;49.398;2023-03-21T05:06:29;7.90;;;4.18;;
67185;SDS011;54116;53.518;49.398;2023-03-21T05:08:57;6.53;;;4.20;;
67185;SDS011;54116;53.518;49.398;2023-03-21T05:11:28;7.13;;;3.75;;
67185;SDS011;54116;53.518;49.398;2023-03-21T05:13:55;7.47;;;4.20;;
67185;SDS011;54116;53.518;49.398;2023-03-21T05:16:22;8.45;;;3.88;;
67185;SDS011;54116;53.518;49.398;2023-03-21T05:18:55;7.22;;;3.70;;
67185;SDS011;54116;53.518;49.398;2023-03-21T05:21:24;6.72;;;3.88;;
67185;SDS011;54116;53.518;49.398;2023-03-21T05:23:54;7.57;;;3.58;;
67185;SDS011;54116;53.518;49.398;2023-03-21T05:26:23;6.85;;;3.80;;
67185;SDS011;54116;53.518;49.398;2023-03-21T05:28:49;6.72;;;4.00;;
67185;SDS011;54116;53.518;49.398;2023-03-21T05:31:16;8.02;;;3.92;;
67185;SDS011;54116;53.518;49.398;2023-03-21T05:33:43;6.68;;;3.85;;
67185;SDS011;54116;53.518;49.398;2023-03-21T05:36:10;6.55;;;3.90;;
67185;SDS011;54116;53.518;49.398;2023-03-21T05:38:37;8.50;;;3.95;;
67185;SDS011;54116;53.518;49.398;2023-03-21T05:41:10;9.45;;;3.17;;
67185;SDS011;54116;53.518;49.398;2023-03-21T05:43:42;7.55;;;3.80;;
67185;SDS011;54116;53.518;49.398;2023-03-21T05:46:08;6.82;;;3.78;;
67185;SDS011;54116;53.518;49.398;2023-03-21T05:48:36;8.07;;;3.40;;
67185;SDS011;54116;53.518;49.398;2023-03-21T05:51:03;7.22;;;3.50;;
67185;SDS011;54116;53.518;49.398;2023-03-21T05:53:30;7.65;;;4.25;;
67185;SDS011;54116;53.518;49.398;2023-03-21T05:55:57;6.30;;;3.65;;
67185;SDS011;54116;53.518;49.398;2023-03-21T05:58:23;7.25;;;3.78;;
67185;SDS011;54116;53.518;49.398;2023-03-21T06:00:49;7.70;;;3.50;;
67185;SDS011;54116;53.518;49.398;2023-03-21T06:03:16;6.13;;;3.38;;
67185;SDS011;54116;53.518;49.398;2023-03-21T06:05:42;6.32;;;3.85;;
67185;SDS011;54116;53.518;49.398;2023-03-21T06:08:08;6.32;;;3.33;;
67185;SDS011;54116;53.518;49.398;2023-03-21T06:10:35;8.25;;;4.03;;
67185;SDS011;54116;53.518;49.398;2023-03-21T06:13:02;7.63;;;3.80;;
67185;SDS011;54116;53.518;49.398;2023-03-21T06:15:29;6.85;;;3.38;;
67185;SDS011;54116;53.518;49.398;2023-03-21T06:17:55;6.50;;;3.47;;
67185;SDS011;54116;53.518;49.398;2023-03-21T06:20:22;6.28;;;3.38;;
67185;SDS011;54116;53.518;49.398;2023-03-21T06:22:48;6.32;;;3.55;;
67185;SDS011;54116;53.518;49.398;2023-03-21T06:25:14;7.88;;;3.30;;
67185;SDS011;54116;53.518;49.398;2023-03-21T06:27:41;7.15;;;3.67;;
67185;SDS011;54116;53.518;49.398;2023-03-21T06:30:07;6.78;;;3.05;;
67185;SDS011;54116;53.518;49.398;2023-03-21T06:32:34;6.00;;;3.08;;
67185;SDS011;54116;53.518;49.398;2023-03-21T06:35:01;5.15;;;2.85;;
67185;SDS011;54116;53.518;49.398;2023-03-21T06:37:27;7.82;;;2.67;;
67185;SDS011;54116;53.518;49.398;2023-03-21T06:39:54;12.95;;;2.30;;
67185;SDS011;54116;53.518;49.398;2023-03-21T06:42:20;5.55;;;3.30;;
67185;SDS011;54116;53.518;49.398;2023-03-21T06:44:46;6.10;;;3.05;;
67185;SDS011;54116;53.518;49.398;2023-03-21T06:47:12;9.52;;;3.40;;
67185;SDS011;54116;53.518;49.398;2023-03-21T06:49:39;5.43;;;2.30;;
67185;SDS011;54116;53.518;49.398;2023-03-21T06:52:07;5.30;;;3.00;;
67185;SDS011;54116;53.518;49.398;2023-03-21T06:54:34;11.98;;;3.40;;
67185;SDS011;54116;53.518;49.398;2023-03-21T06:57:01;7.45;;;3.60;;
67185;SDS011;54116;53.518;49.398;2023-03-21T06:59:27;7.28;;;3.30;;
67185;SDS011;54116;53.518;49.398;2023-03-21T07:01:53;11.23;;;3.97;;
67185;SDS011;54116;53.518;49.398;2023-03-21T07:04:20;6.72;;;2.90;;
67185;SDS011;54116;53.518;49.398;2023-03-21T07:06:46;7.70;;;3.33;;
67185;SDS011;54116;53.518;49.398;2023-03-21T07:09:13;10.85;;;3.22;;
67185;SDS011;54116;53.518;49.398;2023-03-21T07:11:42;8.00;;;3.45;;
67185;SDS011;54116;53.518;49.398;2023-03-21T07:14:08;8.75;;;2.63;;
67185;SDS011;54116;53.518;49.398;2023-03-21T07:16:35;6.65;;;3.30;;
67185;SDS011;54116;53.518;49.398;2023-03-21T07:19:01;7.50;;;4.00;;
67185;SDS011;54116;53.518;49.398;2023-03-21T07:21:27;10.23;;;3.70;;
67185;SDS011;54116;53.518;49.398;2023-03-21T07:23:54;7.93;;;3.75;;
67185;SDS011;54116;53.518;49.398;2023-03-21T07:26:20;7.07;;;3.00;;
67185;SDS011;54116;53.518;49.398;2023-03-21T07:28:49;8.43;;;3.22;;
67185;SDS011;54116;53.518;49.398;2023-03-21T07:31:15;6.80;;;3.40;;
67185;SDS011;54116;53.518;49.398;2023-03-21T07:33:41;7.25;;;3.33;;
67185;SDS011;54116;53.518;49.398;2023-03-21T07:36:09;7.28;;;3.50;;
67185;SDS011;54116;53.518;49.398;2023-03-21T07:38:40;6.47;;;2.67;;
67185;SDS011;54116;53.518;49.398;2023-03-21T07:41:10;6.80;;;2.95;;
67185;SDS011;54116;53.518;49.398;2023-03-21T07:43:36;8.68;;;3.33;;
67185;SDS011;54116;53.518;49.398;2023-03-21T07:46:03;6.07;;;2.80;;
67185;SDS011;54116;53.518;49.398;2023-03-21T07:48:30;7.05;;;3.45;;
67185;SDS011;54116;53.518;49.398;2023-03-21T07:50:56;6.78;;;3.47;;
67185;SDS011;54116;53.518;49.398;2023-03-21T07:53:23;6.03;;;2.90;;
67185;SDS011;54116;53.518;49.398;2023-03-21T07:55:50;6.20;;;3.03;;
67185;SDS011;54116;53.518;49.398;2023-03-21T07:58:17;8.27;;;3.38;;
67185;SDS011;54116;53.518;49.398;2023-03-21T08:00:45;7.47;;;3.30;;
67185;SDS011;54116;53.518;49.398;2023-03-21T08:03:12;8.73;;;3.45;;
67185;SDS011;54116;53.518;49.398;2023-03-21T08:05:38;8.23;;;2.85;;
67185;SDS011;54116;53.518;49.398;2023-03-21T08:08:05;6.78;;;3.22;;
67185;SDS011;54116;53.518;49.398;2023-03-21T08:10:32;7.57;;;3.17;;
67185;SDS011;54116;53.518;49.398;2023-03-21T08:12:59;7.03;;;2.70;;
67185;SDS011;54116;53.518;49.398;2023-03-21T08:15:25;8.52;;;2.83;;
67185;SDS011;54116;53.518;49.398;2023-03-21T08:17:51;6.55;;;2.85;;
67185;SDS011;54116;53.518;49.398;2023-03-21T08:20:19;8.25;;;3.28;;
67185;SDS011;54116;53.518;49.398;2023-03-21T08:22:48;8.05;;;3.20;;
67185;SDS011;54116;53.518;49.398;2023-03-21T08:25:17;8.43;;;3.25;;
67185;SDS011;54116;53.518;49.398;2023-03-21T08:27:46;6.80;;;3.35;;
67185;SDS011;54116;53.518;49.398;2023-03-21T08:30:14;8.48;;;2.90;;
67185;SDS011;54116;53.518;49.398;2023-03-21T08:32:43;7.85;;;3.25;;
67185;SDS011;54116;53.518;49.398;2023-03-21T08:35:10;6.63;;;2.97;;
67185;SDS011;54116;53.518;49.398;2023-03-21T08:37:38;8.75;;;2.83;;
67185;SDS011;54116;53.518;49.398;2023-03-21T08:40:06;10.00;;;3.40;;
67185;SDS011;54116;53.518;49.398;2023-03-21T08:45:05;7.07;;;2.60;;
67185;SDS011;54116;53.518;49.398;2023-03-21T08:47:32;9.60;;;3.65;;
67185;SDS011;54116;53.518;49.398;2023-03-21T08:49:59;8.05;;;4.13;;
67185;SDS011;54116;53.518;49.398;2023-03-21T08:52:25;7.35;;;3.58;;
67185;SDS011;54116;53.518;49.398;2023-03-21T08:54:54;6.22;;;3.05;;
67185;SDS011;54116;53.518;49.398;2023-03-21T08:57:20;9.98;;;3.45;;
67185;SDS011;54116;53.518;49.398;2023-03-21T08:59:46;13.27;;;3.70;;
67185;SDS011;54116;53.518;49.398;2023-03-21T09:02:14;9.48;;;3.55;;
67185;SDS011;54116;53.518;49.398;2023-03-21T09:04:42;8.45;;;3.88;;
67185;SDS011;54116;53.518;49.398;2023-03-21T09:07:09;6.78;;;3.30;;
67185;SDS011;54116;53.518;49.398;2023-03-21T09:09:39;6.43;;;3.08;;
67185;SDS011;54116;53.518;49.398;2023-03-21T09:12:06;8.02;;;3.25;;
67185;SDS011;54116;53.518;49.398;2023-03-21T09:14:33;9.00;;;3.58;;
67185;SDS011;54116;53.518;49.398;2023-03-21T09:17:00;7.55;;;3.20;;
67185;SDS011;54116;53.518;49.398;2023-03-21T09:19:26;6.88;;;2.90;;
67185;SDS011;54116;53.518;49.398;2023-03-21T09:21:53;8.70;;;3.75;;
67185;SDS011;54116;53.518;49.398;2023-03-21T09:24:20;9.82;;;3.55;;
67185;SDS011;54116;53.518;49.398;2023-03-21T09:26:46;6.00;;;2.72;;
67185;SDS011;54116;53.518;49.398;2023-03-21T09:29:15;12.68;;;3.60;;
67185;SDS011;54116;53.518;49.398;2023-03-21T09:31:44;9.98;;;3.97;;
67185;SDS011;54116;53.518;49.398;2023-03-21T09:34:12;8.45;;;3.08;;
67185;SDS011;54116;53.518;49.398;2023-03-21T09:36:40;7.85;;;3.67;;
67185;SDS011;54116;53.518;49.398;2023-03-21T09:39:09;8.68;;;3.53;;
67185;SDS011;54116;53.518;49.398;2023-03-21T09:49:45;8.57;;;2.88;;
67185;SDS011;54116;53.518;49.398;2023-03-21T09:52:26;7.97;;;2.92;;
67185;SDS011;54116;53.518;49.398;2023-03-21T09:54:59;6.10;;;3.10;;
67185;SDS011;54116;53.518;49.398;2023-03-21T10:00:09;6.28;;;2.75;;
67185;SDS011;54116;53.518;49.398;2023-03-21T10:02:48;13.27;;;2.65;;
67185;SDS011;54116;53.518;49.398;2023-03-21T10:05:17;6.93;;;2.75;;
67185;SDS011;54116;53.518;49.398;2023-03-21T10:07:45;7.88;;;2.88;;
67185;SDS011;54116;53.518;49.398;2023-03-21T10:10:21;8.95;;;2.85;;
67185;SDS011;54116;53.518;49.398;2023-03-21T10:12:53;6.53;;;2.75;;
67185;SDS011;54116;53.518;49.398;2023-03-21T10:15:22;8.05;;;2.55;;
67185;SDS011;54116;53.518;49.398;2023-03-21T10:18:09;11.13;;;3.38;;
67185;SDS011;54116;53.518;49.398;2023-03-21T10:20:42;6.10;;;2.72;;
67185;SDS011;54116;53.518;49.398;2023-03-21T10:23:13;7.57;;;2.55;;
67185;SDS011;54116;53.518;49.398;2023-03-21T10:25:45;7.82;;;3.05;;
67185;SDS011;54116;53.518;49.398;2023-03-21T10:28:21;9.32;;;2.75;;
67185;SDS011;54116;53.518;49.398;2023-03-21T10:30:54;6.07;;;2.47;;
67185;SDS011;54116;53.518;49.398;2023-03-21T10:33:25;6.55;;;2.83;;
67185;SDS011;54116;53.518;49.398;2023-03-21T10:35:58;7.93;;;3.00;;
67185;SDS011;54116;53.518;49.398;2023-03-21T10:38:27;6.60;;;3.13;;
67185;SDS011;54116;53.518;49.398;2023-03-21T10:40:55;8.57;;;2.38;;
67185;SDS011;54116;53.518;49.398;2023-03-21T10:45:51;6.00;;;2.78;;
67185;SDS011;54116;53.518;49.398;2023-03-21T10:48:21;6.07;;;2.97;;
67185;SDS011;54116;53.518;49.398;2023-03-21T10:50:48;5.93;;;3.20;;
67185;SDS011;54116;53.518;49.398;2023-03-21T10:53:28;7.55;;;2.42;;
67185;SDS011;54116;53.518;49.398;2023-03-21T10:55:59;7.85;;;2.65;;
67185;SDS011;54116;53.518;49.398;2023-03-21T10:58:28;5.70;;;2.28;;
67185;SDS011;54116;53.518;49.398;2023-03-21T11:01:00;7.85;;;2.47;;
67185;SDS011;54116;53.518;49.398;2023-03-21T11:03:30;6.20;;;2.15;;
67185;SDS011;54116;53.518;49.398;2023-03-21T11:06:02;6.43;;;2.35;;
67185;SDS011;54116;53.518;49.398;2023-03-21T11:08:36;5.63;;;2.40;;
67185;SDS011;54116;53.518;49.398;2023-03-21T11:11:05;6.07;;;2.05;;
67185;SDS011;54116;53.518;49.398;2023-03-21T11:13:38;7.13;;;2.80;;
67185;SDS011;54116;53.518;49.398;2023-03-21T11:16:08;11.20;;;2.17;;
67185;SDS011;54116;53.518;49.398;2023-03-21T11:18:49;5.00;;;2.38;;
67185;SDS011;54116;53.518;49.398;2023-03-21T11:21:17;5.03;;;1.63;;
67185;SDS011;54116;53.518;49.398;2023-03-21T11:23:46;4.93;;;1.83;;
67185;SDS011;54116;53.518;49.398;2023-03-21T11:26:18;6.97;;;2.25;;
67185;SDS011;54116;53.518;49.398;2023-03-21T11:28:49;4.88;;;1.80;;
67185;SDS011;54116;53.518;49.398;2023-03-21T11:31:16;4.20;;;1.73;;
67185;SDS011;54116;53.518;49.398;2023-03-21T11:33:45;4.30;;;1.65;;
67185;SDS011;54116;53.518;49.398;2023-03-21T11:38:48;7.75;;;1.80;;
67185;SDS011;54116;53.518;49.398;2023-03-21T11:41:50;5.72;;;2.05;;
67185;SDS011;54116;53.518;49.398;2023-03-21T11:44:24;8.85;;;2.13;;
67185;SDS011;54116;53.518;49.398;2023-03-21T11:46:55;11.73;;;2.20;;
67185;SDS011;54116;53.518;49.398;2023-03-21T11:49:22;8.82;;;1.67;;
67185;SDS011;54116;53.518;49.398;2023-03-21T11:54:51;16.98;;;2.80;;
67185;SDS011;54116;53.518;49.398;2023-03-21T12:00:02;9.77;;;1.95;;
67185;SDS011;54116;53.518;49.398;2023-03-21T12:08:05;8.82;;;1.95;;
67185;SDS011;54116;53.518;49.398;2023-03-21T12:11:18;10.18;;;2.50;;
67185;SDS011;54116;53.518;49.398;2023-03-21T12:25:21;13.40;;;2.30;;
67185;SDS011;54116;53.518;49.398;2023-03-21T12:28:00;5.05;;;1.88;;
67185;SDS011;54116;53.518;49.398;2023-03-21T12:36:21;5.60;;;1.95;;
67185;SDS011;54116;53.518;49.398;2023-03-21T12:41:43;6.50;;;1.90;;
67185;SDS011;54116;53.518;49.398;2023-03-21T12:44:19;8.43;;;2.17;;
67185;SDS011;54116;53.518;49.398;2023-03-21T12:49:29;11.13;;;1.77;;
67185;SDS011;54116;53.518;49.398;2023-03-21T12:52:01;4.82;;;2.30;;
67185;SDS011;54116;53.518;49.398;2023-03-21T12:54:36;5.55;;;2.38;;
67185;SDS011;54116;53.518;49.398;2023-03-21T12:57:17;8.43;;;2.13;;
67185;SDS011;54116;53.518;49.398;2023-03-21T12:59:58;11.65;;;2.17;;
67185;SDS011;54116;53.518;49.398;2023-03-21T13:02:55;7.57;;;1.80;;
67185;SDS011;54116;53.518;49.398;2023-03-21T13:05:51;14.50;;;2.10;;
67185;SDS011;54116;53.518;49.398;2023-03-21T13:11:06;14.55;;;3.05;;
67185;SDS011;54116;53.518;49.398;2023-03-21T13:29:33;13.13;;;2.90;;
67185;SDS011;54116;53.518;49.398;2023-03-21T13:37:53;6.85;;;2.35;;
67185;SDS011;54116;53.518;49.398;2023-03-21T13:40:23;11.57;;;2.75;;
67185;SDS011;54116;53.518;49.398;2023-03-21T13:42:57;11.35;;;2.00;;
67185;SDS011;54116;53.518;49.398;2023-03-21T13:53:19;12.88;;;3.53;;
67185;SDS011;54116;53.518;49.398;2023-03-21T13:55:56;13.38;;;3.80;;
67185;SDS011;54116;53.518;49.398;2023-03-21T13:58:32;12.07;;;3.13;;
67185;SDS011;54116;53.518;49.398;2023-03-21T14:01:26;19.30;;;2.85;;
67185;SDS011;54116;53.518;49.398;2023-03-21T14:04:12;10.73;;;2.83;;
67185;SDS011;54116;53.518;49.398;2023-03-21T14:06:48;10.82;;;2.83;;
67185;SDS011;54116;53.518;49.398;2023-03-21T14:09:31;11.23;;;2.35;;
67185;SDS011;54116;53.518;49.398;2023-03-21T14:12:03;10.38;;;2.58;;
67185;SDS011;54116;53.518;49.398;2023-03-21T14:14:35;11.50;;;2.53;;
67185;SDS011;54116;53.518;49.398;2023-03-21T14:17:12;10.40;;;2.60;;
67185;SDS011;54116;53.518;49.398;2023-03-21T14:19:40;10.60;;;2.72;;
67185;SDS011;54116;53.518;49.398;2023-03-21T14:22:09;14.32;;;3.40;;
67185;SDS011;54116;53.518;49.398;2023-03-21T14:24:38;11.48;;;3.00;;
67185;SDS011;54116;53.518;49.398;2023-03-21T14:27:05;11.15;;;2.85;;
67185;SDS011;54116;53.518;49.398;2023-03-21T14:29:33;9.32;;;2.85;;
67185;SDS011;54116;53.518;49.398;2023-03-21T14:32:00;12.75;;;2.88;;
67185;SDS011;54116;53.518;49.398;2023-03-21T14:34:28;9.05;;;2.42;;
67185;SDS011;54116;53.518;49.398;2023-03-21T14:36:58;10.98;;;2.75;;
67185;SDS011;54116;53.518;49.398;2023-03-21T14:39:28;10.85;;;3.67;;
67185;SDS011;54116;53.518;49.398;2023-03-21T14:42:00;11.57;;;2.88;;
67185;SDS011;54116;53.518;49.398;2023-03-21T14:44:35;15.15;;;2.03;;
67185;SDS011;54116;53.518;49.398;2023-03-21T14:47:18;10.07;;;2.15;;
67185;SDS011;54116;53.518;49.398;2023-03-21T14:49:47;8.05;;;2.30;;
67185;SDS011;54116;53.518;49.398;2023-03-21T14:52:24;7.97;;;2.85;;
67185;SDS011;54116;53.518;49.398;2023-03-21T14:55:01;11.85;;;2.90;;
67185;SDS011;54116;53.518;49.398;2023-03-21T14:57:30;13.65;;;2.35;;
67185;SDS011;54116;53.518;49.398;2023-03-21T14:59:59;11.63;;;3.25;;
67185;SDS011;54116;53.518;49.398;2023-03-21T15:02:29;17.85;;;2.63;;
67185;SDS011;54116;53.518;49.398;2023-03-21T15:05:05;9.48;;;1.85;;
67185;SDS011;54116;53.518;49.398;2023-03-21T15:07:44;9.55;;;2.05;;
67185;SDS011;54116;53.518;49.398;2023-03-21T15:10:23;9.80;;;2.63;;
67185;SDS011;54116;53.518;49.398;2023-03-21T15:12:56;13.30;;;2.25;;
67185;SDS011;54116;53.518;49.398;2023-03-21T15:15:24;8.88;;;2.20;;
67185;SDS011;54116;53.518;49.398;2023-03-21T15:17:52;10.20;;;1.88;;
67185;SDS011;54116;53.518;49.398;2023-03-21T15:20:21;10.35;;;2.50;;
67185;SDS011;54116;53.518;49.398;2023-03-21T15:22:51;9.63;;;2.17;;
67185;SDS011;54116;53.518;49.398;2023-03-21T15:25:24;22.77;;;2.95;;
67185;SDS011;54116;53.518;49.398;2023-03-21T15:27:53;9.43;;;3.15;;
67185;SDS011;54116;53.518;49.398;2023-03-21T15:30:25;13.57;;;2.10;;
67185;SDS011;54116;53.518;49.398;2023-03-21T15:32:54;14.85;;;2.85;;
67185;SDS011;54116;53.518;49.398;2023-03-21T15:35:26;13.95;;;2.45;;
67185;SDS011;54116;53.518;49.398;2023-03-21T15:38:00;16.33;;;3.08;;
67185;SDS011;54116;53.518;49.398;2023-03-21T15:40:29;14.07;;;2.50;;
67185;SDS011;54116;53.518;49.398;2023-03-21T15:43:12;18.90;;;2.47;;
67185;SDS011;54116;53.518;49.398;2023-03-21T15:45:51;14.82;;;2.78;;
67185;SDS011;54116;53.518;49.398;2023-03-21T15:48:27;17.73;;;2.50;;
67185;SDS011;54116;53.518;49.398;2023-03-21T15:51:00;15.13;;;2.83;;
67185;SDS011;54116;53.518;49.398;2023-03-21T15:53:30;14.10;;;2.75;;
67185;SDS011;54116;53.518;49.398;2023-03-21T15:55:59;14.82;;;2.88;;
67185;SDS011;54116;53.518;49.398;2023-03-21T15:58:37;29.30;;;7.78;;
67185;SDS011;54116;53.518;49.398;2023-03-21T16:01:13;14.40;;;4.07;;
67185;SDS011;54116;53.518;49.398;2023-03-21T16:03:43;13.85;;;3.25;;
67185;SDS011;54116;53.518;49.398;2023-03-21T16:06:17;19.63;;;2.88;;
67185;SDS011;54116;53.518;49.398;2023-03-21T16:08:51;12.95;;;2.33;;
67185;SDS011;54116;53.518;49.398;2023-03-21T16:11:35;11.43;;;2.38;;
67185;SDS011;54116;53.518;49.398;2023-03-21T16:14:05;9.10;;;3.00;;
67185;SDS011;54116;53.518;49.398;2023-03-21T16:16:31;9.60;;;3.53;;
67185;SDS011;54116;53.518;49.398;2023-03-21T16:18:58;9.48;;;2.72;;
67185;SDS011;54116;53.518;49.398;2023-03-21T16:21:27;8.43;;;3.20;;
67185;SDS011;54116;53.518;49.398;2023-03-21T16:23:55;7.65;;;2.95;;
67185;SDS011;54116;53.518;49.398;2023-03-21T16:26:23;6.22;;;2.72;;
67185;SDS011;54116;53.518;49.398;2023-03-21T16:28:52;6.05;;;2.20;;
67185;SDS011;54116;53.518;49.398;2023-03-21T16:31:20;7.55;;;2.35;;
67185;SDS011;54116;53.518;49.398;2023-03-21T16:33:48;7.25;;;2.45;;
67185;SDS011;54116;53.518;49.398;2023-03-21T16:38:45;4.82;;;1.98;;
67185;SDS011;54116;53.518;49.398;2023-03-21T16:41:14;6.95;;;2.13;;
67185;SDS011;54116;53.518;49.398;2023-03-21T16:43:42;7.22;;;2.40;;
67185;SDS011;54116;53.518;49.398;2023-03-21T16:48:46;8.43;;;2.50;;
67185;SDS011;54116;53.518;49.398;2023-03-21T16:51:19;6.63;;;1.90;;
67185;SDS011;54116;53.518;49.398;2023-03-21T16:53:56;9.75;;;1.92;;
67185;SDS011;54116;53.518;49.398;2023-03-21T16:56:32;4.13;;;1.73;;
67185;SDS011;54116;53.518;49.398;2023-03-21T16:59:03;6.60;;;1.95;;
67185;SDS011;54116;53.518;49.398;2023-03-21T17:01:30;5.78;;;2.00;;
67185;SDS011;54116;53.518;49.398;2023-03-21T17:03:57;8.68;;;1.95;;